createdAt,value
2019-04-26T00:00:47.727Z,18.90
2019-04-26T00:03:20.905Z,18.80
2019-04-26T00:05:50.686Z,18.90
2019-04-26T00:08:20.300Z,18.90
2019-04-26T00:10:55.928Z,18.90
2019-04-26T00:13:35.897Z,18.90
2019-04-26T00:16:21.043Z,18.90
2019-04-26T00:18:50.712Z,18.90
2019-04-26T00:21:20.621Z,18.90
2019-04-26T00:23:50.720Z,18.90
2019-04-26T00:26:20.651Z,18.80
2019-04-26T00:28:50.306Z,18.80
2019-04-26T00:31:21.319Z,18.70
2019-04-26T00:33:52.148Z,18.70
2019-04-26T00:36:22.817Z,18.70
2019-04-26T00:38:52.515Z,18.70
2019-04-26T00:41:22.734Z,18.60
2019-04-26T00:43:52.746Z,18.50
2019-04-26T00:46:25.966Z,18.50
2019-04-26T00:48:56.799Z,18.40
2019-04-26T00:51:27.122Z,18.40
2019-04-26T00:53:57.381Z,18.30
2019-04-26T00:56:26.959Z,18.40
2019-04-26T00:58:56.877Z,18.40
2019-04-26T01:01:28.228Z,18.30
2019-04-26T01:03:57.915Z,18.30
2019-04-26T01:06:29.803Z,18.20
2019-04-26T01:09:00.668Z,18.10
2019-04-26T01:11:30.117Z,18.00
2019-04-26T01:14:00.056Z,18.00
2019-04-26T01:16:29.869Z,17.90
2019-04-26T01:18:59.740Z,17.90
2019-04-26T01:21:33.470Z,17.80
2019-04-26T01:24:05.248Z,17.70
2019-04-26T01:26:35.124Z,17.80
2019-04-26T01:29:08.412Z,17.90
2019-04-26T01:31:52.937Z,17.80
2019-04-26T01:37:09.848Z,17.70
2019-04-26T01:39:42.927Z,17.60
2019-04-26T01:42:35.050Z,17.50
2019-04-26T01:45:20.418Z,17.50
2019-04-26T01:47:53.308Z,17.50
2019-04-26T01:50:27.377Z,17.50
2019-04-26T01:52:58.465Z,17.50
2019-04-26T01:55:31.305Z,17.40
2019-04-26T01:58:04.215Z,17.40
2019-04-26T02:00:58.813Z,17.40
2019-04-26T02:03:29.863Z,17.30
2019-04-26T02:05:59.568Z,17.20
2019-04-26T02:08:29.152Z,17.10
2019-04-26T02:11:03.062Z,17.20
2019-04-26T02:13:33.135Z,17.20
2019-04-26T02:16:02.822Z,17.20
2019-04-26T02:18:33.561Z,17.10
2019-04-26T02:21:32.393Z,16.90
2019-04-26T02:24:14.512Z,16.70
2019-04-26T02:26:46.117Z,16.70
2019-04-26T02:29:19.202Z,16.60
2019-04-26T02:31:54.308Z,16.40
2019-04-26T02:34:26.050Z,16.30
2019-04-26T02:36:59.689Z,16.30
2019-04-26T02:39:35.315Z,16.00
2019-04-26T02:42:07.948Z,15.90
2019-04-26T02:44:47.258Z,15.80
2019-04-26T02:47:51.631Z,15.70
2019-04-26T02:50:38.387Z,15.60
2019-04-26T02:53:22.950Z,15.40
2019-04-26T02:56:33.732Z,15.50
2019-04-26T02:59:33.734Z,15.40
2019-04-26T03:02:06.148Z,15.40
2019-04-26T03:04:39.489Z,15.40
2019-04-26T03:07:32.080Z,15.30
2019-04-26T03:10:03.605Z,15.30
2019-04-26T03:12:37.602Z,15.20
2019-04-26T03:15:21.817Z,15.20
2019-04-26T03:18:01.779Z,15.10
2019-04-26T03:20:40.092Z,15.10
2019-04-26T03:23:19.306Z,15.00
2019-04-26T03:26:08.748Z,14.90
2019-04-26T03:28:47.720Z,14.80
2019-04-26T03:31:54.890Z,14.80
2019-04-26T03:34:48.968Z,14.70
2019-04-26T03:37:56.924Z,14.60
2019-04-26T03:40:47.151Z,14.50
2019-04-26T03:43:56.450Z,14.40
2019-04-26T03:46:37.718Z,14.30
2019-04-26T03:49:44.288Z,14.20
2019-04-26T04:00:05.507Z,14.10
2019-04-26T04:02:57.088Z,13.90
2019-04-26T04:05:40.177Z,13.80
2019-04-26T04:08:13.476Z,13.70
2019-04-26T04:10:57.651Z,13.70
2019-04-26T04:13:54.673Z,13.70
2019-04-26T04:16:48.437Z,13.60
2019-04-26T04:20:25.859Z,13.50
2019-04-26T04:23:06.676Z,13.50
2019-04-26T04:25:42.163Z,13.30
2019-04-26T04:28:42.465Z,13.30
2019-04-26T04:31:17.341Z,13.40
2019-04-26T04:34:00.195Z,13.20
2019-04-26T04:36:41.465Z,13.10
2019-04-26T04:39:36.258Z,13.00
2019-04-26T04:42:50.345Z,12.90
2019-04-26T04:46:02.809Z,12.90
2019-04-26T04:49:21.045Z,12.90
2019-04-26T04:52:30.481Z,12.80
2019-04-26T04:55:09.643Z,12.80
2019-04-26T04:58:18.276Z,12.90
2019-04-26T05:01:23.783Z,12.90
2019-04-26T05:04:13.600Z,13.00
2019-04-26T05:07:13.540Z,13.00
2019-04-26T05:10:00.435Z,13.00
2019-04-26T05:12:58.869Z,13.10
2019-04-26T05:15:55.366Z,13.10
2019-04-26T05:19:28.781Z,13.20
2019-04-26T05:22:49.029Z,13.30
2019-04-26T05:26:11.289Z,13.30
2019-04-26T05:28:53.796Z,13.20
2019-04-26T05:31:34.082Z,13.30
2019-04-26T05:34:46.211Z,13.40
2019-04-26T05:37:59.493Z,13.40
2019-04-26T05:40:58.687Z,13.30
2019-04-26T05:43:50.150Z,13.30
2019-04-26T05:46:58.769Z,13.40
2019-04-26T05:50:25.321Z,13.40
2019-04-26T05:53:52.781Z,13.40
2019-04-26T05:56:47.674Z,13.50
2019-04-26T05:59:27.737Z,13.40
2019-04-26T06:02:33.182Z,13.70
2019-04-26T06:05:29.558Z,13.80
2019-04-26T06:08:41.993Z,13.90
2019-04-26T06:11:21.914Z,14.00
2019-04-26T06:14:40.548Z,14.10
2019-04-26T06:17:59.667Z,14.20
2019-04-26T06:21:03.272Z,14.30
2019-04-26T06:23:57.783Z,14.40
2019-04-26T06:26:54.285Z,14.50
2019-04-26T06:29:49.077Z,14.50
2019-04-26T06:32:38.029Z,14.80
2019-04-26T06:35:16.523Z,14.90
2019-04-26T06:38:15.726Z,15.00
2019-04-26T06:41:02.879Z,15.20
2019-04-26T06:43:40.649Z,15.40
2019-04-26T06:46:57.647Z,15.50
2019-04-26T06:50:06.185Z,15.80
2019-04-26T06:52:42.334Z,16.10
2019-04-26T06:55:30.193Z,16.20
2019-04-26T06:58:43.572Z,16.20
2019-04-26T07:01:42.244Z,16.30
2019-04-26T07:04:48.764Z,16.60
2019-04-26T07:08:03.043Z,16.80
2019-04-26T07:11:19.950Z,17.00
2019-04-26T07:14:11.548Z,17.30
2019-04-26T07:16:59.723Z,17.30
2019-04-26T07:20:04.503Z,17.20
2019-04-26T07:23:19.958Z,17.20
2019-04-26T07:26:20.936Z,17.20
2019-04-26T07:29:07.130Z,17.40
2019-04-26T07:31:55.154Z,17.40
2019-04-26T07:35:01.244Z,17.50
2019-04-26T07:38:47.002Z,17.60
2019-04-26T07:41:53.291Z,17.80
2019-04-26T07:44:52.014Z,17.90
2019-04-26T07:48:11.601Z,18.10
2019-04-26T07:51:33.135Z,18.00
2019-04-26T07:54:39.632Z,17.90
2019-04-26T07:58:23.129Z,17.50
2019-04-26T08:01:28.015Z,17.40
2019-04-26T08:04:05.327Z,17.40
2019-04-26T08:06:49.007Z,17.30
2019-04-26T08:09:26.765Z,17.40
2019-04-26T08:12:00.795Z,17.50
2019-04-26T08:14:49.371Z,17.40
2019-04-26T08:17:38.500Z,17.50
2019-04-26T08:20:22.014Z,17.60
2019-04-26T08:22:55.411Z,17.50
2019-04-26T08:25:27.938Z,17.60
2019-04-26T08:28:00.435Z,17.70
2019-04-26T08:30:32.602Z,17.80
2019-04-26T08:33:07.413Z,17.80
2019-04-26T08:35:38.880Z,17.70
2019-04-26T08:38:16.428Z,17.60
2019-04-26T08:40:43.076Z,17.60
2019-04-26T08:43:31.948Z,17.70
2019-04-26T08:46:13.239Z,17.70
2019-04-26T08:48:52.326Z,17.60
2019-04-26T08:51:22.939Z,17.50
2019-04-26T08:53:55.435Z,17.20
2019-04-26T08:56:29.400Z,17.10
2019-04-26T08:59:02.800Z,17.20
2019-04-26T09:01:45.491Z,17.10
2019-04-26T09:04:36.451Z,17.00
2019-04-26T09:07:14.809Z,17.00
2019-04-26T09:09:56.668Z,16.80
2019-04-26T09:12:23.294Z,16.70
2019-04-26T09:14:55.666Z,16.70
2019-04-26T09:17:27.843Z,16.80
2019-04-26T09:19:58.051Z,16.80
2019-04-26T09:22:39.849Z,16.90
2019-04-26T09:25:16.208Z,16.80
2019-04-26T09:27:52.008Z,16.80
2019-04-26T09:30:38.475Z,16.70
2019-04-26T09:33:16.801Z,16.70
2019-04-26T09:35:46.678Z,16.50
2019-04-26T09:38:17.331Z,16.40
2019-04-26T09:40:46.989Z,16.30
2019-04-26T09:43:28.562Z,16.20
2019-04-26T09:46:15.691Z,16.10
2019-04-26T09:49:07.079Z,16.10
2019-04-26T09:51:39.136Z,16.00
2019-04-26T09:54:08.045Z,15.80
2019-04-26T09:56:37.543Z,15.70
2019-04-26T09:59:13.506Z,15.50
2019-04-26T10:01:43.088Z,15.50
2019-04-26T10:04:12.715Z,15.40
2019-04-26T10:06:42.354Z,15.30
2019-04-26T10:09:17.375Z,15.30
2019-04-26T10:11:55.169Z,15.30
2019-04-26T10:14:32.603Z,15.20
2019-04-26T10:17:15.552Z,15.30
2019-04-26T10:19:50.153Z,15.40
2019-04-26T10:22:19.900Z,15.40
2019-04-26T10:24:49.583Z,15.40
2019-04-26T10:27:19.222Z,15.50
2019-04-26T10:29:49.197Z,15.50
2019-04-26T10:32:21.654Z,15.40
2019-04-26T10:34:50.311Z,15.40
2019-04-26T10:37:19.888Z,15.50
2019-04-26T10:39:49.609Z,15.40
2019-04-26T10:42:19.324Z,15.40
2019-04-26T10:44:48.929Z,15.50
2019-04-26T10:47:18.715Z,15.50
2019-04-26T10:49:48.720Z,15.40
2019-04-26T10:52:49.570Z,15.30
2019-04-26T10:55:35.212Z,15.20
2019-04-26T10:58:26.512Z,15.10
2019-04-26T11:00:57.126Z,14.90
2019-04-26T11:03:26.907Z,14.90
2019-04-26T11:05:56.554Z,14.90
2019-04-26T11:08:26.215Z,14.80
2019-04-26T11:10:55.873Z,14.60
2019-04-26T11:13:25.611Z,14.50
2019-04-26T11:15:55.200Z,14.40
2019-04-26T11:18:27.709Z,14.30
2019-04-26T11:20:56.120Z,14.30
2019-04-26T11:23:25.832Z,14.20
2019-04-26T11:25:57.963Z,14.10
2019-04-26T11:28:27.716Z,14.00
2019-04-26T11:30:57.606Z,13.90
2019-04-26T11:33:27.442Z,13.80
2019-04-26T11:35:57.089Z,13.80
2019-04-26T11:38:31.119Z,13.80
2019-04-26T11:41:05.894Z,13.70
2019-04-26T11:43:29.488Z,13.60
2019-04-26T11:46:04.587Z,13.50
2019-04-26T11:48:30.888Z,13.40
2019-04-26T11:51:00.538Z,13.30
2019-04-26T11:53:30.179Z,13.30
2019-04-26T11:56:04.117Z,13.20
2019-04-26T11:58:31.525Z,13.20
2019-04-26T12:01:03.507Z,13.20
2019-04-26T12:03:33.148Z,13.00
2019-04-26T12:06:26.168Z,12.90
2019-04-26T12:09:05.806Z,12.70
2019-04-26T12:11:35.465Z,12.50
2019-04-26T12:14:05.180Z,12.30
2019-04-26T12:16:47.072Z,12.10
2019-04-26T12:19:06.605Z,12.10
2019-04-26T12:21:36.307Z,12.10
2019-04-26T12:24:05.944Z,12.20
2019-04-26T12:26:42.579Z,12.10
2019-04-26T12:29:10.542Z,12.20
2019-04-26T12:31:38.621Z,12.00
2019-04-26T12:34:08.184Z,11.90
2019-04-26T12:36:38.093Z,12.00
2019-04-26T12:39:09.047Z,12.00
2019-04-26T12:41:40.749Z,11.80
2019-04-26T12:44:10.831Z,11.70
2019-04-26T12:46:55.521Z,11.60
2019-04-26T12:49:25.634Z,11.50
2019-04-26T12:51:55.343Z,11.50
2019-04-26T12:54:24.894Z,11.50
2019-04-26T12:56:54.602Z,11.30
2019-04-26T12:59:26.600Z,11.40
2019-04-26T13:02:05.597Z,11.40
2019-04-26T13:04:35.965Z,11.40
2019-04-26T13:07:23.677Z,11.40
2019-04-26T13:10:08.716Z,11.40
2019-04-26T13:13:06.249Z,11.50
2019-04-26T13:16:02.730Z,11.50
2019-04-26T13:18:32.589Z,11.40
2019-04-26T13:21:03.344Z,11.40
2019-04-26T13:23:34.388Z,11.40
2019-04-26T13:26:04.661Z,11.30
2019-04-26T13:28:34.422Z,11.30
2019-04-26T13:31:04.282Z,11.40
2019-04-26T13:33:34.094Z,11.30
2019-04-26T13:36:03.928Z,11.20
2019-04-26T13:38:33.695Z,11.10
2019-04-26T13:41:05.863Z,11.10
2019-04-26T13:43:35.422Z,11.00
2019-04-26T13:46:24.144Z,11.00
2019-04-26T13:48:59.044Z,11.00
2019-04-26T13:51:29.924Z,11.10
2019-04-26T13:53:59.975Z,11.20
2019-04-26T13:56:32.097Z,11.20
2019-04-26T13:59:01.907Z,11.20
2019-04-26T14:01:31.626Z,11.20
2019-04-26T14:04:02.316Z,11.30
2019-04-26T14:06:34.196Z,11.30
2019-04-26T14:09:05.004Z,11.20
2019-04-26T14:11:36.066Z,11.10
2019-04-26T14:14:07.114Z,11.10
2019-04-26T14:16:36.729Z,11.20
2019-04-26T14:19:14.440Z,11.10
2019-04-26T14:21:39.028Z,11.00
2019-04-26T14:24:37.429Z,11.10
2019-04-26T14:27:29.269Z,11.20
2019-04-26T14:30:02.466Z,11.00
2019-04-26T14:32:30.534Z,11.00
2019-04-26T14:35:01.407Z,10.90
2019-04-26T14:37:31.746Z,11.00
2019-04-26T14:40:16.529Z,11.00
2019-04-26T14:42:38.148Z,10.90
2019-04-26T14:45:07.375Z,10.90
2019-04-26T14:47:47.185Z,10.90
2019-04-26T14:50:14.243Z,11.00
2019-04-26T14:52:41.860Z,11.10
2019-04-26T14:55:11.662Z,11.10
2019-04-26T14:57:42.781Z,11.10
2019-04-26T15:00:16.894Z,11.10
2019-04-26T15:03:09.504Z,11.20
2019-04-26T15:05:46.415Z,11.20
2019-04-26T15:08:16.287Z,11.10
2019-04-26T15:10:48.788Z,11.20
2019-04-26T15:13:20.705Z,11.20
2019-04-26T15:15:49.026Z,11.10
2019-04-26T15:18:18.835Z,10.90
2019-04-26T15:20:53.057Z,10.90
2019-04-26T15:23:23.869Z,10.80
2019-04-26T15:25:53.946Z,10.60
2019-04-26T15:28:23.763Z,10.60
2019-04-26T15:30:53.473Z,10.70
2019-04-26T15:33:24.417Z,10.60
2019-04-26T15:35:54.773Z,10.60
2019-04-26T15:38:24.747Z,10.70
2019-04-26T15:41:14.586Z,10.70
2019-04-26T15:43:50.266Z,10.60
2019-04-26T15:46:57.922Z,10.60
2019-04-26T15:49:55.535Z,10.40
2019-04-26T15:52:30.033Z,10.30
2019-04-26T15:54:59.115Z,10.20
2019-04-26T15:57:32.605Z,10.10
2019-04-26T16:00:03.869Z,10.10
2019-04-26T16:02:32.656Z,10.10
2019-04-26T16:05:02.967Z,10.00
2019-04-26T16:07:32.994Z,10.00
2019-04-26T16:10:05.793Z,10.10
2019-04-26T16:12:35.619Z,10.20
2019-04-26T16:15:06.663Z,10.20
2019-04-26T16:17:40.131Z,10.20
2019-04-26T16:20:09.043Z,10.20
2019-04-26T16:22:38.894Z,10.30
2019-04-26T16:25:12.133Z,10.50
2019-04-26T16:27:43.123Z,10.50
2019-04-26T16:30:35.342Z,10.40
2019-04-26T16:33:20.452Z,10.50
2019-04-26T16:35:50.059Z,10.60
2019-04-26T16:38:33.106Z,10.60
2019-04-26T16:41:03.423Z,10.60
2019-04-26T16:43:40.018Z,10.60
2019-04-26T16:46:06.066Z,10.60
2019-04-26T16:48:35.858Z,10.70
2019-04-26T16:51:08.545Z,10.80
2019-04-26T16:53:52.078Z,11.00
2019-04-26T16:56:08.575Z,11.10
2019-04-26T16:58:42.388Z,11.00
2019-04-26T17:01:10.492Z,11.00
2019-04-26T17:03:45.133Z,11.10
2019-04-26T17:06:14.407Z,11.20
2019-04-26T17:08:50.049Z,11.20
2019-04-26T17:11:15.498Z,11.20
2019-04-26T17:13:51.572Z,11.40
2019-04-26T17:16:16.796Z,11.30
2019-04-26T17:18:46.569Z,11.20
2019-04-26T17:21:21.773Z,11.20
2019-04-26T17:24:12.202Z,11.20
2019-04-26T17:27:05.406Z,11.20
2019-04-26T17:29:35.289Z,11.10
2019-04-26T17:32:09.057Z,11.10
2019-04-26T17:34:40.313Z,11.00
2019-04-26T17:37:14.325Z,11.10
2019-04-26T17:39:40.917Z,11.00
2019-04-26T17:42:10.685Z,10.90
2019-04-26T17:44:41.286Z,10.90
2019-04-26T17:47:12.257Z,10.90
2019-04-26T17:49:44.081Z,10.80
2019-04-26T17:52:14.000Z,10.80
2019-04-26T17:54:49.249Z,10.80
2019-04-26T17:57:15.533Z,10.80
2019-04-26T17:59:48.891Z,10.80
2019-04-26T18:02:31.242Z,10.70
2019-04-26T18:04:58.860Z,10.60
2019-04-26T18:07:39.623Z,10.60
2019-04-26T18:09:56.959Z,10.60
2019-04-26T18:12:24.582Z,10.40
2019-04-26T18:14:54.376Z,10.40
2019-04-26T18:17:42.292Z,10.30
2019-04-26T18:20:30.468Z,10.40
2019-04-26T18:23:15.462Z,10.40
2019-04-26T18:25:45.149Z,10.30
2019-04-26T18:28:16.049Z,10.20
2019-04-26T18:30:47.570Z,10.20
2019-04-26T18:33:21.866Z,10.10
2019-04-26T18:35:53.177Z,10.20
2019-04-26T18:38:20.351Z,10.10
2019-04-26T18:41:00.769Z,10.10
2019-04-26T18:43:24.180Z,10.20
2019-04-26T18:45:54.285Z,10.20
2019-04-26T18:48:23.980Z,10.20
2019-04-26T18:50:55.282Z,10.10
2019-04-26T18:53:53.243Z,10.00
2019-04-26T18:56:23.982Z,10.00
2019-04-26T19:01:29.329Z,10.00
2019-04-26T19:04:00.614Z,10.10
2019-04-26T19:06:33.850Z,10.20
2019-04-26T19:09:05.831Z,10.20
2019-04-26T19:11:35.717Z,10.30
2019-04-26T19:14:31.726Z,10.30
2019-04-26T19:17:21.963Z,10.20
2019-04-26T19:20:25.934Z,10.20
2019-04-26T19:22:57.354Z,10.20
2019-04-26T19:25:29.849Z,10.30
2019-04-26T19:28:03.325Z,10.10
2019-04-26T19:30:30.653Z,10.30
2019-04-26T19:33:01.926Z,10.30
2019-04-26T19:35:32.929Z,10.30
2019-04-26T19:38:03.262Z,10.30
2019-04-26T19:40:33.110Z,10.30
2019-04-26T19:43:07.670Z,10.40
2019-04-26T19:45:47.098Z,10.40
2019-04-26T19:48:32.185Z,10.50
2019-04-26T19:51:23.727Z,10.50
2019-04-26T19:54:08.121Z,10.30
2019-04-26T19:57:00.584Z,10.40
2019-04-26T19:59:33.232Z,10.40
2019-04-26T20:01:59.179Z,10.40
2019-04-26T20:04:30.648Z,10.30
2019-04-26T20:07:01.360Z,10.40
2019-04-26T20:09:31.897Z,10.40
2019-04-26T20:12:02.570Z,10.50
2019-04-26T20:14:44.734Z,10.50
2019-04-26T20:17:03.762Z,10.40
2019-04-26T20:19:37.210Z,10.30
2019-04-26T20:22:04.926Z,10.30
2019-04-26T20:24:34.582Z,10.40
2019-04-26T20:27:04.302Z,10.20
2019-04-26T20:29:34.059Z,10.20
2019-04-26T20:32:16.554Z,10.20
2019-04-26T20:34:51.245Z,10.20
2019-04-26T20:37:25.626Z,10.10
2019-04-26T20:39:55.837Z,10.30
2019-04-26T20:42:23.633Z,10.20
2019-04-26T20:44:53.879Z,10.10
2019-04-26T20:47:23.851Z,10.10
2019-04-26T20:50:00.765Z,10.10
2019-04-26T20:52:25.107Z,10.20
2019-04-26T20:54:54.889Z,10.20
2019-04-26T20:57:26.641Z,10.20
2019-04-26T21:00:01.507Z,10.30
2019-04-26T21:02:27.140Z,10.20
2019-04-26T21:04:56.978Z,10.30
2019-04-26T21:07:26.962Z,10.30
2019-04-26T21:09:56.595Z,10.40
2019-04-26T21:12:26.316Z,10.30
2019-04-26T21:14:55.987Z,10.40
2019-04-26T21:17:27.684Z,10.40
2019-04-26T21:22:32.054Z,10.30
2019-04-26T21:25:06.416Z,10.40
2019-04-26T21:27:54.354Z,10.40
2019-04-26T21:30:45.994Z,10.40
2019-04-26T21:33:38.757Z,10.40
2019-04-26T21:36:20.687Z,10.40
2019-04-26T21:39:05.767Z,10.40
2019-04-26T21:41:33.857Z,10.40
2019-04-26T21:44:07.654Z,10.50
2019-04-26T21:46:35.138Z,10.60
2019-04-26T21:49:04.833Z,10.50
2019-04-26T21:51:34.421Z,10.40
2019-04-26T21:54:04.087Z,10.50
2019-04-26T21:56:33.831Z,10.40
2019-04-26T21:59:03.792Z,10.40
2019-04-26T22:01:33.921Z,10.60
2019-04-26T22:04:03.704Z,10.50
2019-04-26T22:06:33.624Z,10.50
2019-04-26T22:09:23.750Z,10.50
2019-04-26T22:11:56.075Z,10.50
2019-04-26T22:14:29.239Z,10.60
2019-04-26T22:17:26.457Z,10.40
2019-04-26T22:20:19.740Z,10.40
2019-04-26T22:23:18.389Z,10.30
2019-04-26T22:25:50.767Z,10.30
2019-04-26T22:28:20.422Z,10.30
2019-04-26T22:30:50.130Z,10.30
2019-04-26T22:33:19.864Z,10.40
2019-04-26T22:35:50.440Z,10.40
2019-04-26T22:38:26.615Z,10.40
2019-04-26T22:40:56.102Z,10.40
2019-04-26T22:43:55.556Z,10.40
2019-04-26T22:46:49.572Z,10.50
2019-04-26T22:49:19.343Z,10.40
2019-04-26T22:51:48.943Z,10.40
2019-04-26T22:54:19.684Z,10.30
2019-04-26T22:56:50.312Z,10.40
2019-04-26T22:59:22.759Z,10.40
2019-04-26T23:01:53.636Z,10.50
2019-04-26T23:04:26.524Z,10.50
2019-04-26T23:06:56.472Z,10.50
2019-04-26T23:09:26.486Z,10.50
2019-04-26T23:12:03.815Z,10.50
2019-04-26T23:14:43.929Z,10.50
2019-04-26T23:17:27.112Z,10.50
2019-04-26T23:20:09.833Z,10.40
2019-04-26T23:22:39.570Z,10.40
2019-04-26T23:25:09.391Z,10.40
2019-04-26T23:27:39.058Z,10.50
2019-04-26T23:30:09.590Z,10.40
2019-04-26T23:32:39.151Z,10.30
2019-04-26T23:35:10.090Z,10.30
2019-04-26T23:37:40.154Z,10.20
2019-04-26T23:40:10.243Z,10.20
2019-04-26T23:42:39.914Z,10.20
2019-04-26T23:45:12.405Z,10.20
2019-04-26T23:47:41.002Z,10.10
2019-04-26T23:50:11.022Z,10.10
2019-04-26T23:52:40.754Z,10.10
2019-04-26T23:55:10.469Z,10.20
2019-04-26T23:57:40.449Z,10.20
